Time,TemperatureF,DewpointF,PressureIn,WindDirection,WindDirectionDegrees,WindSpeedMPH,WindSpeedGustMPH,Humidity,HourlyPrecipIn,Conditions,Clouds,dailyrainin,SoftwareType,DateUTC
2013-07-21 00:04:00,69.0,66.6,29.85,West,270,0.0,0.0,92,0.00,,,0.00,WUHU216HW,2013-07-21 04:04:00,
2013-07-21 00:09:00,69.0,66.6,29.84,West,270,0.0,0.0,92,0.00,,,0.00,WUHU216HW,2013-07-21 04:09:00,
2013-07-21 00:14:00,69.0,66.6,29.84,West,270,0.0,0.0,92,0.00,,,0.00,WUHU216HW,2013-07-21 04:14:00,
2013-07-21 00:19:00,68.9,66.4,29.85,West,270,0.0,0.0,92,0.00,,,0.00,WUHU216HW,2013-07-21 04:19:00,
2013-07-21 00:24:00,68.9,66.4,29.85,West,270,0.0,0.0,92,0.00,,,0.00,WUHU216HW,2013-07-21 04:24:00,
2013-07-21 00:29:00,68.9,66.4,29.85,West,270,0.0,0.0,92,0.00,,,0.00,WUHU216HW,2013-07-21 04:29:00,
2013-07-21 00:34:00,68.9,66.4,29.85,West,270,0.0,0.0,92,0.00,,,0.00,WUHU216HW,2013-07-21 04:34:00,
2013-07-21 00:39:00,68.9,66.4,29.85,West,270,0.0,0.0,92,0.00,,,0.00,WUHU216HW,2013-07-21 04:39:00,
2013-07-21 00:44:00,68.9,66.4,29.85,West,270,0.0,0.0,92,0.00,,,0.00,WUHU216HW,2013-07-21 04:44:00,
2013-07-21 00:49:00,68.9,66.4,29.85,West,270,0.0,0.0,92,0.00,,,0.00,WUHU216HW,2013-07-21 04:49:00,
2013-07-21 00:54:00,68.9,66.4,29.85,West,270,0.0,0.0,92,0.00,,,0.00,WUHU216HW,2013-07-21 04:54:00,
2013-07-21 00:59:00,68.9,66.4,29.85,West,270,0.0,0.0,92,0.00,,,0.00,WUHU216HW,2013-07-21 04:59:00,
2013-07-21 01:04:00,68.9,66.2,29.85,West,270,0.0,0.0,92,0.00,,,0.00,WUHU216HW,2013-07-21 05:04:00,
2013-07-21 01:09:00,68.7,66.2,29.85,West,270,0.0,0.0,92,0.00,,,0.00,WUHU216HW,2013-07-21 05:09:00,
2013-07-21 01:14:00,68.7,66.2,29.85,West,270,0.0,0.0,92,0.00,,,0.00,WUHU216HW,2013-07-21 05:14:00,
2013-07-21 01:19:00,68.7,66.2,29.85,West,270,0.0,0.0,92,0.00,,,0.00,WUHU216HW,2013-07-21 05:19:00,
2013-07-21 01:24:00,68.7,66.2,29.85,West,270,0.0,0.0,92,0.00,,,0.00,WUHU216HW,2013-07-21 05:24:00,
2013-07-21 01:29:00,68.7,66.2,29.85,West,270,0.0,0.0,92,0.00,,,0.00,WUHU216HW,2013-07-21 05:29:00,
2013-07-21 01:34:00,68.7,66.2,29.85,NW,315,0.0,0.0,92,0.00,,,0.00,WUHU216HW,2013-07-21 05:34:00,
2013-07-21 01:39:00,68.7,66.2,29.85,NW,315,0.0,0.0,92,0.00,,,0.00,WUHU216HW,2013-07-21 05:39:00,
2013-07-21 01:44:00,68.7,66.2,29.86,NW,315,0.0,0.0,92,0.00,,,0.00,WUHU216HW,2013-07-21 05:44:00,
2013-07-21 01:49:00,68.7,66.2,29.86,NW,315,0.0,0.0,92,0.00,,,0.00,WUHU216HW,2013-07-21 05:49:00,
2013-07-21 01:54:00,68.7,66.2,29.86,NW,315,0.0,0.0,92,0.00,,,0.00,WUHU216HW,2013-07-21 05:54:00,
2013-07-21 01:59:00,68.7,66.2,29.86,NW,315,0.0,0.0,92,0.00,,,0.00,WUHU216HW,2013-07-21 05:59:00,
2013-07-21 02:04:00,68.7,66.2,29.86,NW,315,0.0,0.0,92,0.00,,,0.00,WUHU216HW,2013-07-21 06:04:00,
2013-07-21 02:09:00,68.7,66.2,29.86,NW,315,0.0,0.0,92,0.00,,,0.00,WUHU216HW,2013-07-21 06:09:00,
2013-07-21 02:14:00,68.5,66.0,29.85,NW,315,0.0,0.0,92,0.00,,,0.00,WUHU216HW,2013-07-21 06:14:00,
2013-07-21 02:19:00,68.5,66.0,29.85,NW,315,0.0,0.0,92,0.00,,,0.00,WUHU216HW,2013-07-21 06:19:00,
2013-07-21 02:24:00,68.5,66.0,29.85,NW,315,0.0,0.0,92,0.00,,,0.00,WUHU216HW,2013-07-21 06:24:00,
2013-07-21 02:29:00,68.5,66.0,29.85,NW,315,0.0,0.0,92,0.00,,,0.00,WUHU216HW,2013-07-21 06:29:00,
2013-07-21 02:34:00,68.5,66.0,29.85,NW,315,0.0,0.0,92,0.00,,,0.00,WUHU216HW,2013-07-21 06:34:00,
2013-07-21 02:39:00,68.5,66.0,29.85,West,270,0.0,0.0,92,0.00,,,0.00,WUHU216HW,2013-07-21 06:39:00,
2013-07-21 02:44:00,68.3,65.9,29.86,West,270,0.0,0.0,92,0.00,,,0.00,WUHU216HW,2013-07-21 06:44:00,
2013-07-21 02:49:00,68.3,65.9,29.85,West,270,0.0,0.0,92,0.00,,,0.00,WUHU216HW,2013-07-21 06:49:00,
2013-07-21 02:54:00,68.1,65.7,29.85,West,270,0.0,0.0,92,0.00,,,0.00,WUHU216HW,2013-07-21 06:54:00,
2013-07-21 02:59:00,68.1,65.7,29.85,West,270,0.0,0.0,92,0.00,,,0.00,WUHU216HW,2013-07-21 06:59:00,
2013-07-21 03:04:00,68.1,65.7,29.85,West,270,0.0,0.0,92,0.00,,,0.00,WUHU216HW,2013-07-21 07:04:00,
2013-07-21 03:09:00,68.1,65.7,29.84,West,270,0.0,0.0,92,0.00,,,0.00,WUHU216HW,2013-07-21 07:09:00,
2013-07-21 03:14:00,68.3,65.9,29.84,West,270,0.0,0.0,92,0.00,,,0.00,WUHU216HW,2013-07-21 07:14:00,
2013-07-21 03:19:00,68.1,65.7,29.84,West,270,0.0,0.0,92,0.00,,,0.00,WUHU216HW,2013-07-21 07:19:00,
2013-07-21 03:24:00,68.1,65.7,29.85,West,270,0.0,0.0,92,0.00,,,0.00,WUHU216HW,2013-07-21 07:24:00,
2013-07-21 03:29:00,68.1,65.7,29.85,West,270,0.0,0.0,92,0.00,,,0.00,WUHU216HW,2013-07-21 07:29:00,
2013-07-21 03:34:00,68.1,65.7,29.85,West,270,0.0,0.0,92,0.00,,,0.00,WUHU216HW,2013-07-21 07:34:00,
2013-07-21 03:39:00,67.8,65.3,29.85,West,270,0.0,0.0,92,0.00,,,0.00,WUHU216HW,2013-07-21 07:39:00,
2013-07-21 03:44:00,67.8,65.3,29.85,West,270,0.0,0.0,92,0.00,,,0.00,WUHU216HW,2013-07-21 07:44:00,
2013-07-21 03:49:00,67.8,65.3,29.85,West,270,0.0,0.0,92,0.00,,,0.00,WUHU216HW,2013-07-21 07:49:00,
2013-07-21 03:54:00,67.8,65.3,29.84,West,270,0.0,0.0,92,0.00,,,0.00,WUHU216HW,2013-07-21 07:54:00,
2013-07-21 03:59:00,67.8,65.3,29.84,West,270,0.0,0.0,92,0.00,,,0.00,WUHU216HW,2013-07-21 07:59:00,
2013-07-21 04:04:00,67.8,65.3,29.84,West,270,0.0,0.0,92,0.00,,,0.00,WUHU216HW,2013-07-21 08:04:00,
2013-07-21 04:09:00,67.8,65.3,29.85,West,270,0.0,0.0,92,0.00,,,0.00,WUHU216HW,2013-07-21 08:09:00,
2013-07-21 04:14:00,67.6,65.1,29.85,West,270,0.0,0.0,92,0.00,,,0.00,WUHU216HW,2013-07-21 08:14:00,
2013-07-21 04:19:00,67.6,65.1,29.85,West,270,0.0,0.0,92,0.00,,,0.00,WUHU216HW,2013-07-21 08:19:00,
2013-07-21 04:24:00,67.6,65.1,29.85,West,270,0.0,0.0,92,0.00,,,0.00,WUHU216HW,2013-07-21 08:24:00,
2013-07-21 04:29:00,67.6,65.1,29.85,West,270,0.0,0.0,92,0.00,,,0.00,WUHU216HW,2013-07-21 08:29:00,
2013-07-21 04:34:00,67.6,65.1,29.85,West,270,0.0,0.0,92,0.00,,,0.00,WUHU216HW,2013-07-21 08:34:00,
2013-07-21 04:39:00,67.4,65.0,29.85,West,270,0.0,0.0,92,0.00,,,0.00,WUHU216HW,2013-07-21 08:39:00,
2013-07-21 04:44:00,67.2,64.8,29.84,West,270,0.0,0.0,92,0.00,,,0.00,WUHU216HW,2013-07-21 08:44:00,
2013-07-21 04:49:00,67.2,64.8,29.84,West,270,0.0,0.0,92,0.00,,,0.00,WUHU216HW,2013-07-21 08:49:00,
2013-07-21 04:54:00,67.2,64.8,29.85,West,270,0.0,0.0,92,0.00,,,0.00,WUHU216HW,2013-07-21 08:54:00,
2013-07-21 04:59:00,67.2,64.8,29.85,West,270,0.0,0.0,92,0.00,,,0.00,WUHU216HW,2013-07-21 08:59:00,
2013-07-21 05:04:00,67.2,64.8,29.85,West,270,0.0,0.0,92,0.00,,,0.00,WUHU216HW,2013-07-21 09:04:00,
2013-07-21 05:09:00,67.2,64.8,29.85,West,270,0.0,0.0,92,0.00,,,0.00,WUHU216HW,2013-07-21 09:09:00,
2013-07-21 05:14:00,67.1,64.6,29.85,West,270,0.0,0.0,92,0.00,,,0.00,WUHU216HW,2013-07-21 09:14:00,
2013-07-21 05:19:00,67.1,64.6,29.85,WNW,293,0.0,0.0,92,0.00,,,0.00,WUHU216HW,2013-07-21 09:19:00,
2013-07-21 05:24:00,67.1,64.4,29.85,WNW,293,0.0,0.0,92,0.00,,,0.00,WUHU216HW,2013-07-21 09:24:00,
2013-07-21 05:29:00,66.9,64.4,29.86,WNW,293,0.0,0.0,92,0.00,,,0.00,WUHU216HW,2013-07-21 09:29:00,
2013-07-21 05:34:00,66.9,64.4,29.85,WNW,293,0.0,0.0,92,0.00,,,0.00,WUHU216HW,2013-07-21 09:34:00,
2013-07-21 05:39:00,66.9,64.4,29.85,WNW,293,0.0,0.0,92,0.00,,,0.00,WUHU216HW,2013-07-21 09:39:00,
2013-07-21 05:44:00,66.9,64.4,29.85,WNW,293,0.0,0.0,92,0.00,,,0.00,WUHU216HW,2013-07-21 09:44:00,
2013-07-21 05:49:00,66.7,64.2,29.85,WNW,293,0.0,0.0,92,0.00,,,0.00,WUHU216HW,2013-07-21 09:49:00,
2013-07-21 05:54:00,66.7,64.2,29.85,WNW,293,0.0,0.0,92,0.00,,,0.00,WUHU216HW,2013-07-21 09:54:00,
2013-07-21 05:59:00,66.7,64.2,29.85,WNW,293,0.0,0.0,92,0.00,,,0.00,WUHU216HW,2013-07-21 09:59:00,
2013-07-21 06:04:00,66.7,64.2,29.85,WNW,293,0.0,0.0,92,0.00,,,0.00,WUHU216HW,2013-07-21 10:04:00,
2013-07-21 06:09:00,66.7,64.2,29.85,WNW,293,0.0,0.0,92,0.00,,,0.00,WUHU216HW,2013-07-21 10:09:00,
2013-07-21 06:14:00,66.7,64.2,29.86,WNW,293,0.0,0.0,92,0.00,,,0.00,WUHU216HW,2013-07-21 10:14:00,
2013-07-21 06:19:00,66.5,64.1,29.85,WNW,293,0.0,0.0,92,0.00,,,0.00,WUHU216HW,2013-07-21 10:19:00,
2013-07-21 06:24:00,66.5,64.1,29.85,WNW,293,0.0,0.0,92,0.00,,,0.00,WUHU216HW,2013-07-21 10:24:00,
2013-07-21 06:29:00,66.5,64.1,29.86,WNW,293,0.0,0.0,92,0.00,,,0.00,WUHU216HW,2013-07-21 10:29:00,
2013-07-21 06:34:00,66.3,63.9,29.87,WNW,293,0.0,0.0,92,0.00,,,0.00,WUHU216HW,2013-07-21 10:34:00,
2013-07-21 06:39:00,66.3,63.9,29.87,WNW,293,0.0,0.0,92,0.00,,,0.00,WUHU216HW,2013-07-21 10:39:00,
2013-07-21 06:44:00,66.3,63.9,29.87,WNW,293,0.0,0.0,92,0.00,,,0.00,WUHU216HW,2013-07-21 10:44:00,
2013-07-21 06:49:00,66.2,63.7,29.87,WNW,293,0.0,0.0,92,0.00,,,0.00,WUHU216HW,2013-07-21 10:49:00,
2013-07-21 06:54:00,66.0,63.5,29.87,WNW,293,0.0,0.0,92,0.00,,,0.00,WUHU216HW,2013-07-21 10:54:00,
2013-07-21 06:59:00,66.0,63.5,29.87,WNW,293,0.0,0.0,92,0.00,,,0.00,WUHU216HW,2013-07-21 10:59:00,
2013-07-21 07:04:00,66.0,63.5,29.87,WNW,293,0.0,0.0,92,0.00,,,0.00,WUHU216HW,2013-07-21 11:04:00,
2013-07-21 07:09:00,66.0,63.5,29.87,WNW,293,0.0,0.0,92,0.00,,,0.00,WUHU216HW,2013-07-21 11:09:00,
2013-07-21 07:14:00,66.0,63.5,29.87,WNW,293,0.0,0.0,92,0.00,,,0.00,WUHU216HW,2013-07-21 11:14:00,
2013-07-21 07:19:00,66.0,63.5,29.87,WNW,293,0.0,0.0,92,0.00,,,0.00,WUHU216HW,2013-07-21 11:19:00,
2013-07-21 07:24:00,66.0,63.5,29.87,WNW,293,0.0,0.0,92,0.00,,,0.00,WUHU216HW,2013-07-21 11:24:00,
2013-07-21 07:29:00,65.8,63.7,29.87,WNW,293,0.0,0.0,93,0.00,,,0.00,WUHU216HW,2013-07-21 11:29:00,
2013-07-21 07:34:00,66.0,63.8,29.87,WNW,293,0.0,0.0,93,0.00,,,0.00,WUHU216HW,2013-07-21 11:34:00,
2013-07-21 07:39:00,66.0,63.8,29.87,WNW,293,0.0,0.0,93,0.00,,,0.00,WUHU216HW,2013-07-21 11:39:00,
2013-07-21 07:44:00,66.0,63.8,29.87,WNW,293,0.0,0.0,93,0.00,,,0.00,WUHU216HW,2013-07-21 11:44:00,
2013-07-21 07:49:00,66.0,63.8,29.87,WNW,293,0.0,0.0,93,0.00,,,0.00,WUHU216HW,2013-07-21 11:49:00,
2013-07-21 07:54:00,66.0,63.8,29.87,WNW,293,0.0,0.0,93,0.00,,,0.00,WUHU216HW,2013-07-21 11:54:00,
2013-07-21 07:59:00,66.0,63.8,29.87,WNW,293,0.0,0.0,93,0.00,,,0.00,WUHU216HW,2013-07-21 11:59:00,
2013-07-21 08:04:00,66.2,64.0,29.88,WNW,293,0.0,0.0,93,0.00,,,0.00,WUHU216HW,2013-07-21 12:04:00,
2013-07-21 08:09:00,66.5,64.4,29.88,WNW,293,0.0,0.0,93,0.00,,,0.00,WUHU216HW,2013-07-21 12:09:00,
2013-07-21 08:14:00,66.5,64.4,29.88,WNW,293,0.0,0.0,93,0.00,,,0.00,WUHU216HW,2013-07-21 12:14:00,
2013-07-21 08:19:00,66.7,64.5,29.88,WNW,293,0.0,0.0,93,0.00,,,0.00,WUHU216HW,2013-07-21 12:19:00,
2013-07-21 08:24:00,66.9,64.7,29.88,WNW,293,0.0,0.0,93,0.00,,,0.00,WUHU216HW,2013-07-21 12:24:00,
2013-07-21 08:29:00,67.1,64.9,29.88,NNE,23,0.0,0.0,93,0.00,,,0.00,WUHU216HW,2013-07-21 12:29:00,
2013-07-21 08:34:00,67.2,65.1,29.88,NE,45,0.0,0.0,93,0.00,,,0.00,WUHU216HW,2013-07-21 12:34:00,
2013-07-21 08:39:00,67.6,65.4,29.88,NE,45,0.0,0.0,93,0.00,,,0.00,WUHU216HW,2013-07-21 12:39:00,
2013-07-21 08:44:00,67.8,65.6,29.87,NE,45,0.0,0.0,93,0.00,,,0.00,WUHU216HW,2013-07-21 12:44:00,
2013-07-21 08:49:00,67.8,65.6,29.87,NE,45,0.0,0.0,93,0.00,,,0.00,WUHU216HW,2013-07-21 12:49:00,
2013-07-21 08:54:00,68.1,66.0,29.87,NE,45,0.0,0.0,93,0.00,,,0.00,WUHU216HW,2013-07-21 12:54:00,
2013-07-21 08:59:00,68.1,66.0,29.87,NE,45,0.0,0.0,93,0.00,,,0.00,WUHU216HW,2013-07-21 12:59:00,
2013-07-21 09:04:00,68.3,66.2,29.87,NE,45,0.0,0.0,93,0.00,,,0.00,WUHU216HW,2013-07-21 13:04:00,
2013-07-21 09:09:00,68.5,66.3,29.87,NE,45,0.0,0.0,93,0.00,,,0.00,WUHU216HW,2013-07-21 13:09:00,
2013-07-21 09:14:00,68.7,66.5,29.87,NE,45,0.0,0.0,93,0.00,,,0.00,WUHU216HW,2013-07-21 13:14:00,
2013-07-21 09:20:00,68.7,66.5,29.87,NE,45,0.0,0.0,93,0.00,,,0.00,WUHU216HW,2013-07-21 13:20:00,
2013-07-21 09:25:00,68.9,66.7,29.87,NE,45,0.0,0.0,93,0.00,,,0.00,WUHU216HW,2013-07-21 13:25:00,
2013-07-21 09:30:00,69.2,67.1,29.88,NE,45,0.0,0.0,93,0.00,,,0.00,WUHU216HW,2013-07-21 13:30:00,
2013-07-21 09:35:00,69.4,67.2,29.88,NE,45,0.0,0.0,93,0.00,,,0.00,WUHU216HW,2013-07-21 13:35:00,
2013-07-21 09:40:00,69.8,67.6,29.88,NE,45,0.0,0.0,93,0.00,,,0.00,WUHU216HW,2013-07-21 13:40:00,
2013-07-21 09:45:00,69.9,67.8,29.89,NE,45,0.0,0.0,93,0.00,,,0.00,WUHU216HW,2013-07-21 13:45:00,
2013-07-21 09:50:00,70.3,68.1,29.89,NE,45,0.0,0.0,93,0.00,,,0.00,WUHU216HW,2013-07-21 13:50:00,
2013-07-21 09:55:00,70.8,68.7,29.88,NE,45,0.0,0.0,93,0.00,,,0.00,WUHU216HW,2013-07-21 13:55:00,
2013-07-21 10:00:00,71.0,68.9,29.89,NE,45,0.0,0.0,93,0.00,,,0.00,WUHU216HW,2013-07-21 14:00:00,
2013-07-21 10:05:00,71.4,69.2,29.89,NE,45,0.0,0.0,93,0.00,,,0.00,WUHU216HW,2013-07-21 14:05:00,
2013-07-21 10:10:00,71.7,69.9,29.89,NE,45,0.0,0.0,94,0.00,,,0.00,WUHU216HW,2013-07-21 14:10:00,
2013-07-21 10:15:00,71.9,70.1,29.89,NNW,338,0.0,0.0,94,0.00,,,0.00,WUHU216HW,2013-07-21 14:15:00,
2013-07-21 10:20:00,72.1,70.3,29.89,NW,315,0.0,0.0,94,0.00,,,0.00,WUHU216HW,2013-07-21 14:20:00,
2013-07-21 10:25:00,72.3,70.1,29.89,NW,315,0.0,0.0,93,0.00,,,0.00,WUHU216HW,2013-07-21 14:25:00,
2013-07-21 10:30:00,72.5,70.3,29.89,NNE,23,0.0,0.0,93,0.00,,,0.00,WUHU216HW,2013-07-21 14:30:00,
2013-07-21 10:35:00,72.6,70.5,29.89,NE,45,0.0,0.0,93,0.00,,,0.00,WUHU216HW,2013-07-21 14:35:00,
2013-07-21 10:40:00,73.0,70.8,29.89,NE,45,0.0,0.0,93,0.00,,,0.00,WUHU216HW,2013-07-21 14:40:00,
2013-07-21 10:45:00,73.0,70.8,29.89,NE,45,0.0,0.0,93,0.00,,,0.00,WUHU216HW,2013-07-21 14:45:00,
2013-07-21 10:50:00,73.2,70.7,29.88,NE,45,0.0,0.0,92,0.00,,,0.00,WUHU216HW,2013-07-21 14:50:00,